Time;durP1;ratioP1;P1;durP2;ratioP2;P2;SDS_P1;SDS_P2;PMS_P1;PMS_P2;Temp;Humidity;BMP_temperature;BMP_pressure;BME280_temperature;BME280_humidity;BME280_pressure;Samples;Min_cycle;Max_cycle;Signal;HPM_P1;HPM_P2
2023/07/14 00:01:40;;;;;;;8.18;5.00;;;;;;;27.84;83.75;98748.63;4996216;28;20606;-63
2023/07/14 00:04:12;;;;;;;7.40;4.53;;;;;;;27.79;83.24;98751.97;5002228;28;20239;-63
2023/07/14 00:06:40;;;;;;;8.85;4.68;;;;;;;27.73;83.31;98735.28;4990765;28;20204;-63
2023/07/14 00:09:18;;;;;;;5.50;4.22;;;;;;;27.76;83.75;98729.56;4999968;28;20212;-63
2023/07/14 00:11:45;;;;;;;8.98;4.32;;;;;;;27.69;82.75;98723.63;4997787;28;20219;-63
2023/07/14 00:14:11;;;;;;;5.95;4.50;;;;;;;27.76;81.71;98719.03;5000817;28;20228;-63
2023/07/14 00:16:38;;;;;;;8.95;4.47;;;;;;;27.86;80.67;98722.94;4993771;28;20208;-63
2023/07/14 00:19:12;;;;;;;6.00;4.40;;;;;;;27.96;79.64;98712.66;4997442;28;20640;-63
2023/07/14 00:21:39;;;;;;;5.43;3.80;;;;;;;28.05;79.64;98705.19;5000322;28;20205;-63
2023/07/14 00:24:13;;;;;;;7.18;4.70;;;;;;;28.09;79.51;98701.06;5003895;28;20220;-62
2023/07/14 00:26:41;;;;;;;6.97;4.20;;;;;;;28.06;80.04;98707.56;4994376;28;20201;-63
2023/07/14 00:29:32;;;;;;;6.03;4.25;;;;;;;27.97;80.53;98727.38;4997052;28;20200;-63
2023/07/14 00:31:59;;;;;;;6.55;4.43;;;;;;;27.88;81.01;98741.91;5007401;28;20205;-63
2023/07/14 00:34:26;;;;;;;6.65;4.75;;;;;;;27.86;81.24;98744.75;5004557;28;20229;-63
2023/07/14 00:36:53;;;;;;;6.47;4.63;;;;;;;27.81;81.49;98757.81;4995391;28;20208;-63
2023/07/14 00:39:21;;;;;;;6.95;4.60;;;;;;;27.74;81.41;98763.13;5006897;28;20205;-63
2023/07/14 00:41:49;;;;;;;6.80;4.53;;;;;;;27.76;82.12;98755.81;5006685;28;20216;-63
2023/07/14 00:44:17;;;;;;;5.55;4.15;;;;;;;27.73;82.54;98758.91;5005496;28;20197;-63
2023/07/14 00:46:46;;;;;;;7.18;4.72;;;;;;;27.60;82.73;98756.50;5004200;28;20620;-63
2023/07/14 00:49:20;;;;;;;7.03;4.45;;;;;;;27.49;83.33;98765.22;4997746;28;20243;-63
2023/07/14 00:51:48;;;;;;;5.40;3.97;;;;;;;27.46;83.54;98765.66;4996549;28;20205;-63
2023/07/14 00:54:27;;;;;;;7.85;4.18;;;;;;;27.45;84.06;98775.34;4992684;28;20233;-63
2023/07/14 00:56:55;;;;;;;6.03;4.22;;;;;;;27.37;83.76;98773.06;5004375;28;20209;-63
2023/07/14 00:59:29;;;;;;;7.78;4.50;;;;;;;27.40;83.87;98777.06;4997308;28;20270;-63
2023/07/14 01:02:20;;;;;;;6.88;4.57;;;;;;;27.37;84.58;98778.31;4997838;28;20205;-63
2023/07/14 01:04:51;;;;;;;7.00;4.40;;;;;;;27.42;84.41;98780.28;5003606;28;20652;-63
2023/07/14 01:07:20;;;;;;;7.43;4.28;;;;;;;27.41;85.26;98799.69;4997369;28;20209;-63
2023/07/14 01:09:49;;;;;;;8.02;4.80;;;;;;;27.37;85.78;98806.41;5006232;28;20707;-63
2023/07/14 01:12:20;;;;;;;6.88;5.03;;;;;;;27.28;85.71;98809.34;4993578;28;20206;-63
2023/07/14 01:14:51;;;;;;;10.25;4.60;;;;;;;27.18;86.81;98809.13;5004599;28;20227;-63
2023/07/14 01:17:19;;;;;;;7.03;4.05;;;;;;;27.16;87.01;98813.00;5007237;28;20205;-63
2023/07/14 01:19:51;;;;;;;11.02;4.82;;;;;;;27.07;86.96;98825.59;4997963;28;20762;-63
2023/07/14 01:22:24;;;;;;;8.07;4.82;;;;;;;27.02;86.86;98825.47;4993016;28;20224;-63
2023/07/14 01:25:03;;;;;;;6.50;4.03;;;;;;;26.94;85.97;98823.19;5003365;28;20197;-63
2023/07/14 01:27:32;;;;;;;6.32;4.13;;;;;;;26.86;85.54;98809.34;4998155;28;20231;-63
2023/07/14 01:30:00;;;;;;;5.18;4.03;;;;;;;26.78;86.03;98817.53;4996047;28;20221;-62
2023/07/14 01:32:35;;;;;;;6.85;4.53;;;;;;;26.63;86.84;98809.25;5003017;28;20775;-63
2023/07/14 01:35:03;;;;;;;7.97;4.38;;;;;;;26.60;87.34;98818.38;5004281;28;20247;-63
2023/07/14 01:37:31;;;;;;;8.57;4.90;;;;;;;26.50;88.61;98825.16;4998996;28;20214;-63
2023/07/14 01:39:59;;;;;;;6.05;4.40;;;;;;;26.33;88.73;98823.13;5002120;28;20216;-63
2023/07/14 01:42:26;;;;;;;6.93;4.40;;;;;;;26.25;89.33;98823.41;5002639;28;20679;-63
2023/07/14 01:44:54;;;;;;;6.38;4.40;;;;;;;26.23;89.20;98835.91;4993812;28;20700;-63
2023/07/14 01:47:23;;;;;;;10.40;4.55;;;;;;;26.11;90.14;98848.16;5001069;28;20217;-63
2023/07/14 01:49:51;;;;;;;7.90;4.40;;;;;;;26.10;91.14;98846.56;4992218;28;20201;-63
2023/07/14 01:52:24;;;;;;;8.90;5.25;;;;;;;26.06;90.42;98840.13;5002682;28;20212;-63
2023/07/14 01:54:56;;;;;;;8.38;4.63;;;;;;;26.05;90.33;98843.78;5003845;28;20227;-63
2023/07/14 01:57:27;;;;;;;7.95;4.47;;;;;;;25.97;90.54;98858.75;5001780;28;20201;-63
2023/07/14 01:59:59;;;;;;;8.38;5.05;;;;;;;25.96;90.69;98857.16;4994459;28;20205;-63
2023/07/14 02:02:31;;;;;;;7.43;4.80;;;;;;;25.99;90.38;98855.13;4996045;28;20688;-63
2023/07/14 02:04:58;;;;;;;7.72;5.15;;;;;;;25.91;90.42;98864.84;5002884;28;20216;-63
2023/07/14 02:07:25;;;;;;;7.10;4.75;;;;;;;25.95;90.63;98860.00;5004662;28;20601;-63
2023/07/14 02:09:52;;;;;;;8.20;4.90;;;;;;;25.94;89.79;98848.69;4996261;28;20213;-62
2023/07/14 02:12:29;;;;;;;8.70;5.18;;;;;;;25.87;90.29;98858.47;4991593;28;20205;-62
2023/07/14 02:15:00;;;;;;;9.20;5.20;;;;;;;25.84;90.41;98861.50;4992877;28;20597;-63
2023/07/14 02:17:30;;;;;;;8.07;5.50;;;;;;;25.76;91.01;98861.75;4998949;28;20793;-63
2023/07/14 02:19:58;;;;;;;16.27;5.40;;;;;;;25.71;91.56;98877.28;4995194;28;20206;-63
2023/07/14 02:22:26;;;;;;;10.10;5.70;;;;;;;25.63;92.59;98885.44;5001580;28;20272;-63
2023/07/14 02:24:55;;;;;;;9.32;5.38;;;;;;;25.55;93.99;98891.72;4991904;28;20197;-63
2023/07/14 02:27:22;;;;;;;10.57;5.55;;;;;;;25.44;95.56;98898.44;5003332;28;20705;-63
2023/07/14 02:29:49;;;;;;;8.57;5.45;;;;;;;25.35;96.40;98907.56;4995410;28;20205;-63
2023/07/14 02:32:26;;;;;;;12.18;6.63;;;;;;;25.21;98.44;98927.75;4990254;28;20220;-62
2023/07/14 02:35:00;;;;;;;11.55;6.43;;;;;;;25.02;100.00;98955.59;4992935;28;20236;-62
2023/07/14 02:38:00;;;;;;;11.50;6.10;;;;;;;24.78;100.00;98953.66;4999127;28;20206;-62
2023/07/14 02:40:30;;;;;;;10.18;6.38;;;;;;;24.63;100.00;98940.84;5002361;28;20201;-62
2023/07/14 02:42:57;;;;;;;11.23;6.53;;;;;;;24.62;100.00;98945.28;5003495;28;20252;-62
2023/07/14 02:45:26;;;;;;;11.32;6.60;;;;;;;24.50;100.00;98962.59;4999145;28;20212;-62
2023/07/14 02:47:58;;;;;;;11.40;6.35;;;;;;;24.51;100.00;98969.41;4991068;28;20232;-62
2023/07/14 02:50:25;;;;;;;10.82;6.00;;;;;;;24.49;100.00;98975.84;5001244;28;20221;-62
2023/07/14 02:52:51;;;;;;;13.23;6.57;;;;;;;24.44;100.00;98979.09;5003665;28;20206;-62
2023/07/14 02:55:18;;;;;;;9.25;5.70;;;;;;;24.44;100.00;98989.53;4999790;28;20245;-62
2023/07/14 02:57:45;;;;;;;8.70;5.68;;;;;;;24.43;100.00;99003.59;4998166;28;20215;-62
2023/07/14 03:00:15;;;;;;;10.77;6.05;;;;;;;24.39;100.00;98994.53;4992320;28;20205;-62
2023/07/14 03:02:42;;;;;;;9.05;5.45;;;;;;;24.36;100.00;98997.56;5000122;28;20272;-62
2023/07/14 03:05:12;;;;;;;11.95;5.75;;;;;;;24.37;100.00;99005.19;5003672;28;20204;-62
2023/07/14 03:07:39;;;;;;;9.23;5.38;;;;;;;24.35;100.00;99016.88;4997267;28;20209;-62
2023/07/14 03:10:09;;;;;;;8.43;5.25;;;;;;;24.31;100.00;99033.94;4990267;28;20205;-62
2023/07/14 03:12:36;;;;;;;16.13;5.32;;;;;;;24.32;100.00;99053.84;5002371;28;20247;-62
2023/07/14 03:15:06;;;;;;;9.70;5.32;;;;;;;24.32;100.00;99064.31;5002834;28;20249;-62
2023/07/14 03:17:33;;;;;;;7.95;5.22;;;;;;;24.36;100.00;99063.69;4997134;28;20580;-62
2023/07/14 03:20:00;;;;;;;6.40;3.88;;;;;;;24.39;100.00;99075.56;4999009;28;20209;-62
2023/07/14 03:22:30;;;;;;;9.57;5.05;;;;;;;24.39;99.66;99086.00;4991801;28;20197;-62
2023/07/14 03:24:58;;;;;;;8.57;4.70;;;;;;;24.41;100.00;99089.22;5002679;28;20297;-62
2023/07/14 03:27:25;;;;;;;8.93;4.53;;;;;;;24.44;98.55;99109.78;5003280;28;20205;-62
2023/07/14 03:29:52;;;;;;;7.28;4.30;;;;;;;24.49;96.02;99127.44;5003688;28;20204;-62
2023/07/14 03:32:19;;;;;;;6.45;4.25;;;;;;;24.45;97.26;99158.41;4990512;28;20694;-62
2023/07/14 03:34:45;;;;;;;8.07;4.47;;;;;;;24.51;96.66;99173.28;5001422;28;20233;-62
2023/07/14 03:37:12;;;;;;;6.03;3.97;;;;;;;24.47;96.24;99168.69;5002351;28;20204;-62
2023/07/14 03:39:41;;;;;;;6.53;4.03;;;;;;;24.50;96.93;99181.34;4996548;28;20264;-62
2023/07/14 03:42:08;;;;;;;10.60;4.90;;;;;;;24.40;99.15;99202.59;4999759;28;20609;-62
2023/07/14 03:44:34;;;;;;;9.55;4.68;;;;;;;24.22;100.00;99189.28;4990288;28;20208;-62
2023/07/14 03:47:03;;;;;;;9.10;4.63;;;;;;;24.17;100.00;99177.63;5002086;28;20197;-62
2023/07/14 03:49:30;;;;;;;10.95;4.13;;;;;;;24.17;100.00;99182.84;4997120;28;20217;-62
2023/07/14 03:51:57;;;;;;;6.78;4.13;;;;;;;24.06;99.45;99195.69;4998954;28;20205;-62
2023/07/14 03:54:23;;;;;;;8.32;4.57;;;;;;;24.08;99.87;99210.13;4990258;28;20239;-62
2023/07/14 03:56:53;;;;;;;9.90;4.28;;;;;;;24.06;99.44;99227.81;4990941;28;21275;-62
2023/07/14 03:59:21;;;;;;;7.80;3.85;;;;;;;24.02;99.96;99210.91;4994870;28;20646;-62
2023/07/14 04:01:48;;;;;;;7.57;4.00;;;;;;;24.03;99.59;99215.16;5001768;28;20200;-62
2023/07/14 04:04:15;;;;;;;7.00;3.70;;;;;;;23.92;100.00;99228.75;4990452;28;20205;-62
2023/07/14 04:06:42;;;;;;;9.23;3.85;;;;;;;23.91;99.68;99237.56;5000519;28;20255;-62
2023/07/14 04:09:09;;;;;;;6.40;3.58;;;;;;;23.90;97.66;99241.19;4992477;28;20215;-62
2023/07/14 04:11:36;;;;;;;7.05;3.20;;;;;;;23.92;97.45;99240.00;5002790;28;20201;-62
2023/07/14 04:14:06;;;;;;;7.57;3.67;;;;;;;23.92;96.93;99252.28;5000352;28;20597;-62
2023/07/14 04:16:35;;;;;;;7.75;3.88;;;;;;;23.93;96.70;99243.44;5000235;28;20228;-62
2023/07/14 04:19:02;;;;;;;6.50;3.88;;;;;;;23.92;95.85;99258.28;4991907;28;20221;-62
2023/07/14 04:21:31;;;;;;;4.78;3.03;;;;;;;23.89;93.82;99273.53;5003531;28;20217;-62
2023/07/14 04:23:58;;;;;;;6.57;3.22;;;;;;;23.90;93.50;99267.31;5003703;28;20216;-62
2023/07/14 04:26:29;;;;;;;5.07;3.00;;;;;;;23.90;92.14;99296.84;4990328;28;20205;-62
2023/07/14 04:28:56;;;;;;;5.82;2.97;;;;;;;23.88;93.16;99305.84;4999899;28;20603;-62
2023/07/14 04:31:24;;;;;;;8.95;3.22;;;;;;;23.96;92.31;99279.59;4989671;28;20722;-62
2023/07/14 04:33:52;;;;;;;4.40;2.95;;;;;;;23.92;91.60;99309.72;4998021;28;20613;-62
2023/07/14 04:36:19;;;;;;;3.85;3.08;;;;;;;23.92;89.63;99314.94;4990193;28;20300;-62
2023/07/14 04:39:00;;;;;;;5.90;2.50;;;;;;;23.88;90.34;99313.69;5001521;28;20216;-62
2023/07/14 04:41:27;;;;;;;6.63;2.88;;;;;;;23.94;90.98;99318.97;4997007;28;20205;-62
2023/07/14 04:43:54;;;;;;;5.88;2.90;;;;;;;24.00;90.30;99313.97;4988861;28;20214;-62
2023/07/14 04:46:21;;;;;;;5.75;2.85;;;;;;;24.05;91.18;99306.38;4998785;28;20212;-62
2023/07/14 04:48:50;;;;;;;6.68;2.80;;;;;;;24.12;91.69;99294.97;5000743;28;20718;-62
2023/07/14 04:51:17;;;;;;;4.20;2.90;;;;;;;24.26;91.44;99284.56;4995654;28;20239;-62
2023/07/14 04:53:45;;;;;;;6.70;2.67;;;;;;;24.40;89.17;99286.22;4994717;28;20678;-62
2023/07/14 04:56:11;;;;;;;7.28;2.50;;;;;;;24.49;89.75;99285.06;4999558;28;20283;-62
2023/07/14 04:58:38;;;;;;;3.70;2.55;;;;;;;24.63;89.67;99281.50;4999441;28;20216;-62
2023/07/14 05:01:05;;;;;;;4.47;2.83;;;;;;;24.68;87.63;99267.06;4991946;28;20209;-62
2023/07/14 05:03:32;;;;;;;8.15;3.00;;;;;;;24.72;89.52;99252.56;5004370;28;20212;-62
2023/07/14 05:06:00;;;;;;;5.90;2.78;;;;;;;24.93;89.38;99236.72;5006373;28;20216;-62
2023/07/14 05:08:27;;;;;;;4.47;2.78;;;;;;;25.01;89.18;99246.97;4994086;28;20209;-62
2023/07/14 05:10:54;;;;;;;5.35;2.67;;;;;;;25.14;88.59;99258.50;5003378;28;20213;-62
2023/07/14 05:13:21;;;;;;;4.95;3.00;;;;;;;25.25;89.94;99252.66;4992275;28;20781;-62
2023/07/14 05:15:47;;;;;;;4.95;2.83;;;;;;;25.28;87.09;99249.63;4991741;28;20236;-62
2023/07/14 05:18:14;;;;;;;7.28;3.13;;;;;;;25.39;88.06;99254.25;4992077;28;20222;-62
2023/07/14 05:20:43;;;;;;;4.38;2.75;;;;;;;25.61;88.12;99261.88;5003792;28;20211;-62
2023/07/14 05:23:11;;;;;;;5.55;2.50;;;;;;;25.82;90.23;99269.50;5005877;28;20208;-62
2023/07/14 05:25:39;;;;;;;7.35;2.75;;;;;;;25.95;85.16;99253.78;5000247;28;20205;-62
2023/07/14 05:28:06;;;;;;;6.53;2.88;;;;;;;26.01;84.82;99248.72;4992204;28;20722;-62
2023/07/14 05:30:34;;;;;;;5.40;3.05;;;;;;;25.77;83.43;99258.81;5003524;28;20205;-62
2023/07/14 05:33:01;;;;;;;6.55;2.78;;;;;;;25.80;85.01;99263.63;5005319;28;20221;-63
2023/07/14 05:35:28;;;;;;;3.25;2.58;;;;;;;25.91;85.90;99272.72;4998946;28;20740;-63
2023/07/14 05:37:56;;;;;;;9.15;2.70;;;;;;;25.99;87.92;99274.31;4992129;28;20655;-62
2023/07/14 05:40:25;;;;;;;5.03;3.00;;;;;;;26.05;86.93;99273.50;5002155;28;20579;-63
2023/07/14 05:42:52;;;;;;;6.57;2.70;;;;;;;26.10;85.90;99271.06;4994192;28;20208;-63
2023/07/14 05:45:19;;;;;;;5.68;2.50;;;;;;;26.25;85.96;99268.97;5005724;28;20235;-63
2023/07/14 05:47:47;;;;;;;5.22;2.80;;;;;;;26.44;85.77;99269.88;5005019;28;20213;-63
2023/07/14 05:50:15;;;;;;;8.45;3.20;;;;;;;26.54;84.87;99278.16;5004395;28;20204;-63
2023/07/14 05:52:43;;;;;;;8.30;2.95;;;;;;;26.64;83.57;99285.56;4992851;28;20216;-63
2023/07/14 05:55:10;;;;;;;4.22;2.70;;;;;;;26.73;84.83;99286.09;5001208;28;20233;-63
2023/07/14 05:57:39;;;;;;;4.35;2.70;;;;;;;26.62;84.69;99301.50;4998838;28;20674;-63
2023/07/14 06:00:13;;;;;;;4.43;3.00;;;;;;;26.49;86.03;99300.72;4994479;28;20209;-63
2023/07/14 06:02:41;;;;;;;6.07;3.00;;;;;;;26.35;83.39;99297.34;4996929;28;20307;-63
2023/07/14 06:05:09;;;;;;;6.15;2.90;;;;;;;26.23;84.20;99297.19;4992404;28;20205;-63
2023/07/14 06:07:36;;;;;;;3.42;2.40;;;;;;;26.24;84.58;99292.75;4998288;28;20209;-63
2023/07/14 06:10:04;;;;;;;6.28;3.17;;;;;;;26.11;83.98;99293.63;4994272;28;20210;-63
2023/07/14 06:12:32;;;;;;;5.25;2.97;;;;;;;26.12;88.25;99300.47;4992004;28;20238;-63
2023/07/14 06:15:00;;;;;;;5.80;2.83;;;;;;;26.24;86.59;99317.19;4992957;28;20233;-63
2023/07/14 06:17:27;;;;;;;3.38;2.60;;;;;;;26.38;86.79;99315.28;5005243;28;20208;-63
2023/07/14 06:19:54;;;;;;;5.65;3.47;;;;;;;26.47;86.38;99323.72;4996075;28;20671;-63
2023/07/14 06:22:21;;;;;;;5.78;3.10;;;;;;;26.57;85.49;99317.06;5001536;28;20883;-65
2023/07/14 06:24:49;;;;;;;6.53;3.40;;;;;;;26.63;86.50;99312.81;4992011;28;20221;-63
2023/07/14 06:27:17;;;;;;;6.32;3.20;;;;;;;26.55;85.63;99313.84;5004769;28;20213;-63
2023/07/14 06:29:45;;;;;;;5.35;3.20;;;;;;;26.60;88.12;99308.78;4997712;28;20216;-65
2023/07/14 06:32:15;;;;;;;5.00;3.47;;;;;;;26.61;85.36;99309.56;5001473;28;20235;-62
2023/07/14 06:34:42;;;;;;;5.43;3.50;;;;;;;26.50;85.22;99303.19;4992253;28;20196;-63
2023/07/14 06:37:09;;;;;;;5.85;3.55;;;;;;;26.45;85.71;99289.06;5005281;28;20665;-63
2023/07/14 06:39:36;;;;;;;8.75;3.67;;;;;;;26.53;85.35;99301.94;4997607;28;20647;-63
2023/07/14 06:42:03;;;;;;;6.63;3.38;;;;;;;26.58;85.36;99299.50;4995450;28;20202;-64
2023/07/14 06:44:30;;;;;;;4.78;3.40;;;;;;;26.78;85.80;99302.03;5002044;28;20275;-64
2023/07/14 06:46:57;;;;;;;8.75;3.45;;;;;;;26.97;87.12;99298.47;4991297;28;20341;-64
2023/07/14 06:49:25;;;;;;;6.97;3.83;;;;;;;27.21;84.75;99299.53;4990879;28;20209;-64
2023/07/14 06:51:52;;;;;;;7.10;3.40;;;;;;;27.25;82.25;99298.09;4999036;28;20209;-64
2023/07/14 06:54:19;;;;;;;6.15;3.50;;;;;;;27.24;84.12;99287.81;5001010;28;20216;-64
2023/07/14 06:56:45;;;;;;;5.68;3.03;;;;;;;27.31;82.86;99297.25;4998477;28;20229;-64
2023/07/14 06:59:12;;;;;;;5.38;3.25;;;;;;;27.37;82.53;99297.41;4995703;28;20216;-64
2023/07/14 07:01:39;;;;;;;5.53;3.45;;;;;;;27.35;78.77;99296.81;4996862;28;20220;-64
2023/07/14 07:04:06;;;;;;;7.53;3.92;;;;;;;27.63;79.53;99283.22;5002060;28;20704;-64
2023/07/14 07:06:34;;;;;;;5.07;3.22;;;;;;;28.01;84.70;99285.69;4991339;28;20201;-64
2023/07/14 07:09:01;;;;;;;8.48;3.58;;;;;;;28.30;79.34;99281.50;5003210;28;20224;-64
2023/07/14 07:11:30;;;;;;;8.73;3.83;;;;;;;28.69;83.75;99289.13;4999885;28;20299;-63
2023/07/14 07:13:56;;;;;;;4.80;3.08;;;;;;;28.93;80.94;99288.16;4997272;28;20328;-63
2023/07/14 07:16:23;;;;;;;8.15;3.55;;;;;;;29.05;75.76;99291.63;4994228;28;20247;-64
2023/07/14 07:18:50;;;;;;;3.97;3.00;;;;;;;29.30;77.95;99282.75;4996043;28;20200;-64
2023/07/14 07:21:17;;;;;;;10.50;5.88;;;;;;;29.51;75.46;99291.91;4994613;28;20210;-64
2023/07/14 07:23:45;;;;;;;6.05;3.92;;;;;;;29.69;69.94;99293.66;4995060;28;20210;-65
2023/07/14 07:26:12;;;;;;;6.38;3.78;;;;;;;29.81;68.96;99304.97;4995158;28;20837;-63
2023/07/14 07:28:39;;;;;;;5.32;3.50;;;;;;;30.06;68.37;99301.28;4996556;28;20573;-64
2023/07/14 07:31:11;;;;;;;8.05;4.47;;;;;;;30.29;68.39;99303.88;4994362;28;20200;-64
2023/07/14 07:33:38;;;;;;;5.75;3.97;;;;;;;30.44;66.49;99301.53;4992505;28;20240;-62
2023/07/14 07:36:14;;;;;;;6.30;3.67;;;;;;;30.61;65.87;99306.06;4993995;28;20225;-62
2023/07/14 07:38:48;;;;;;;5.72;3.30;;;;;;;30.79;62.76;99303.25;4994411;28;20197;-63
2023/07/14 07:41:15;;;;;;;7.47;3.35;;;;;;;31.10;69.39;99309.03;4995767;28;20701;-63
2023/07/14 07:43:43;;;;;;;5.95;3.38;;;;;;;31.08;62.69;99305.84;4996276;28;20197;-63
2023/07/14 07:46:10;;;;;;;7.60;3.40;;;;;;;31.15;63.57;99306.47;4997303;28;20205;-63
2023/07/14 07:48:37;;;;;;;13.35;6.22;;;;;;;31.32;64.45;99311.75;4997050;28;20207;-63
2023/07/14 07:51:05;;;;;;;16.85;10.45;;;;;;;31.52;63.35;99303.34;4994698;28;20200;-63
2023/07/14 07:53:33;;;;;;;7.63;4.47;;;;;;;31.65;58.00;99299.56;4994769;28;20503;-62
2023/07/14 07:56:02;;;;;;;8.77;4.65;;;;;;;31.84;61.48;99298.25;4993215;28;20236;-61
2023/07/14 07:58:30;;;;;;;4.53;3.60;;;;;;;31.85;62.16;99299.03;4994588;28;20204;-65
2023/07/14 08:00:59;;;;;;;5.72;3.20;;;;;;;32.02;55.98;99281.28;4994416;28;20247;-63
2023/07/14 08:03:26;;;;;;;4.85;3.50;;;;;;;32.29;62.37;99277.88;4994957;28;20217;-62
2023/07/14 08:05:54;;;;;;;4.03;3.50;;;;;;;32.22;58.35;99281.53;4998045;28;20702;-63
2023/07/14 08:08:22;;;;;;;5.22;3.47;;;;;;;32.25;54.19;99283.69;4997535;28;20201;-63
2023/07/14 08:10:48;;;;;;;4.70;3.13;;;;;;;32.50;57.53;99284.25;4996027;28;20205;-63
2023/07/14 08:13:17;;;;;;;6.20;3.30;;;;;;;32.57;53.89;99290.91;4999264;28;20201;-63
2023/07/14 08:15:44;;;;;;;5.40;2.58;;;;;;;32.82;53.86;99281.63;4996687;28;20227;-64
2023/07/14 08:18:10;;;;;;;4.78;3.20;;;;;;;33.02;52.60;99284.47;4998108;28;20811;-64
2023/07/14 08:20:39;;;;;;;3.78;3.03;;;;;;;33.13;51.65;99287.97;4996695;28;20194;-62
2023/07/14 08:23:06;;;;;;;4.18;3.00;;;;;;;33.05;48.18;99286.59;4996350;28;20197;-63
2023/07/14 08:25:33;;;;;;;4.15;2.88;;;;;;;32.76;50.87;99287.94;4996321;28;20198;-63
2023/07/14 08:28:00;;;;;;;6.53;3.38;;;;;;;32.81;49.16;99280.00;4997016;28;20194;-63
2023/07/14 08:30:30;;;;;;;5.55;3.30;;;;;;;32.82;49.78;99278.97;4994368;28;20821;-63
2023/07/14 08:32:57;;;;;;;4.80;3.22;;;;;;;32.87;51.15;99279.00;4999190;28;20251;-63
2023/07/14 08:35:24;;;;;;;5.18;3.60;;;;;;;33.09;53.87;99269.13;4997370;28;20206;-63
2023/07/14 08:37:52;;;;;;;6.13;3.20;;;;;;;33.21;51.02;99278.75;4997687;28;20197;-63
2023/07/14 08:40:25;;;;;;;4.53;3.25;;;;;;;33.10;48.50;99284.00;5002628;28;20704;-63
2023/07/14 08:43:11;;;;;;;6.20;3.28;;;;;;;33.41;49.94;99272.78;4999773;28;20701;-63
2023/07/14 08:45:45;;;;;;;4.57;3.17;;;;;;;33.41;49.57;99257.69;5003416;28;20251;-63
2023/07/14 08:48:25;;;;;;;6.93;3.30;;;;;;;33.27;48.39;99257.31;5001785;28;20208;-63
2023/07/14 08:50:56;;;;;;;5.72;3.38;;;;;;;33.55;52.29;99247.47;5001972;28;20638;-63
2023/07/14 08:53:27;;;;;;;5.35;3.85;;;;;;;33.66;49.69;99253.59;4999750;28;20288;-63
2023/07/14 08:56:00;;;;;;;5.13;3.75;;;;;;;33.84;50.37;99245.19;4999877;28;20241;-63
2023/07/14 08:58:31;;;;;;;8.43;3.63;;;;;;;33.71;48.35;99251.75;5001770;28;20633;-63
2023/07/14 09:01:09;;;;;;;4.43;3.47;;;;;;;33.77;51.97;99240.13;5001100;28;20197;-63
2023/07/14 09:03:42;;;;;;;6.22;3.70;;;;;;;33.81;49.95;99235.91;5001512;28;20217;-63
2023/07/14 09:06:21;;;;;;;6.60;3.78;;;;;;;34.05;48.47;99245.28;5003322;28;20209;-63
2023/07/14 09:08:49;;;;;;;4.60;2.95;;;;;;;34.28;46.83;99233.41;5001429;28;20264;-63
2023/07/14 09:11:30;;;;;;;5.53;3.45;;;;;;;34.16;49.18;99234.44;4999623;28;20211;-63
2023/07/14 09:14:09;;;;;;;6.07;3.40;;;;;;;34.22;47.33;99240.56;5001417;28;20201;-63
2023/07/14 09:16:44;;;;;;;4.60;3.65;;;;;;;34.26;47.30;99236.31;4999716;28;20710;-63
2023/07/14 09:19:25;;;;;;;4.18;2.90;;;;;;;34.40;44.42;99241.91;5001247;28;20204;-63
2023/07/14 09:21:59;;;;;;;4.80;3.00;;;;;;;34.53;46.08;99236.09;5001713;28;20204;-63
2023/07/14 09:24:36;;;;;;;13.43;2.85;;;;;;;34.57;48.27;99236.38;4999956;28;20207;-63
2023/07/14 09:27:08;;;;;;;6.30;3.35;;;;;;;34.46;45.37;99241.63;5001921;28;20607;-63
2023/07/14 09:29:39;;;;;;;4.03;3.38;;;;;;;34.41;46.45;99233.69;5000269;28;20625;-64
2023/07/14 09:32:53;;;;;;;4.80;3.30;;;;;;;34.65;46.17;99227.88;4999039;28;20198;-63
2023/07/14 09:35:24;;;;;;;5.93;3.42;;;;;;;35.08;48.23;99233.72;5002396;28;20210;-64
2023/07/14 09:37:54;;;;;;;3.88;3.03;;;;;;;34.86;44.35;99240.09;4998584;28;20233;-63
2023/07/14 09:40:23;;;;;;;3.92;3.22;;;;;;;34.99;47.47;99238.75;4999452;28;20205;-63
2023/07/14 09:42:52;;;;;;;4.15;3.38;;;;;;;34.80;43.67;99235.84;5000988;28;20195;-63
2023/07/14 09:45:21;;;;;;;4.55;3.65;;;;;;;35.02;49.67;99226.78;4999846;28;20209;-63
2023/07/14 09:47:55;;;;;;;4.15;3.25;;;;;;;35.23;50.29;99223.06;5001003;28;20225;-63
2023/07/14 09:50:26;;;;;;;5.30;3.75;;;;;;;35.47;46.14;99227.78;4999578;28;20597;-63
2023/07/14 09:52:57;;;;;;;5.15;3.47;;;;;;;35.24;48.62;99229.16;4998971;28;20193;-63
2023/07/14 09:55:25;;;;;;;5.30;3.60;;;;;;;35.12;45.82;99224.94;4998887;28;20209;-63
2023/07/14 09:57:55;;;;;;;5.03;3.47;;;;;;;35.50;46.87;99220.03;4998905;28;20228;-63
2023/07/14 10:00:25;;;;;;;5.78;3.40;;;;;;;35.40;43.79;99222.72;4999093;28;20212;-63
2023/07/14 10:03:03;;;;;;;4.35;3.33;;;;;;;35.49;44.37;99213.16;4998722;28;20190;-63
2023/07/14 10:05:47;;;;;;;6.22;3.38;;;;;;;35.59;42.02;99217.66;4999491;28;20224;-63
2023/07/14 10:08:28;;;;;;;5.53;3.30;;;;;;;35.81;42.42;99218.09;4998981;28;20204;-64
2023/07/14 10:10:58;;;;;;;5.32;3.10;;;;;;;35.85;43.12;99204.22;5000406;28;20190;-63
2023/07/14 10:13:28;;;;;;;4.68;3.28;;;;;;;35.78;41.36;99218.63;4994218;28;20713;-63
2023/07/14 10:15:58;;;;;;;5.00;3.58;;;;;;;35.70;42.81;99205.91;4998894;28;20212;-63
2023/07/14 10:18:27;;;;;;;3.95;3.40;;;;;;;35.83;42.37;99207.16;4992188;28;20206;-63
2023/07/14 10:21:11;;;;;;;4.90;3.38;;;;;;;35.92;42.68;99207.38;4993713;28;20221;-63
2023/07/14 10:23:38;;;;;;;3.95;3.15;;;;;;;35.90;42.71;99196.19;5002086;28;20221;-63
2023/07/14 10:26:07;;;;;;;4.65;3.10;;;;;;;35.94;42.15;99194.59;4997698;28;20209;-63
2023/07/14 10:28:35;;;;;;;4.60;3.58;;;;;;;36.20;42.21;99195.25;5000518;28;20271;-63
2023/07/14 10:31:27;;;;;;;5.72;3.40;;;;;;;36.19;41.06;99191.81;4998894;28;20201;-63
2023/07/14 10:34:10;;;;;;;4.28;2.97;;;;;;;36.29;40.69;99206.13;4998740;28;20730;-63
2023/07/14 10:36:40;;;;;;;8.88;2.75;;;;;;;36.50;39.87;99202.22;4997693;28;20312;-63
2023/07/14 10:39:15;;;;;;;3.72;2.65;;;;;;;36.67;41.73;99185.84;4999392;28;20677;-63
2023/07/14 10:41:45;;;;;;;3.38;2.53;;;;;;;36.46;39.48;99201.97;5006492;28;20266;-63
2023/07/14 10:44:19;;;;;;;3.17;2.42;;;;;;;36.64;37.74;99192.53;5008833;28;20197;-63
2023/07/14 10:46:52;;;;;;;5.70;2.67;;;;;;;36.57;37.42;99192.06;4991103;28;20693;-63
2023/07/14 10:49:26;;;;;;;4.13;2.75;;;;;;;36.52;39.06;99194.78;4989312;28;20201;-63
2023/07/14 10:52:00;;;;;;;2.65;2.20;;;;;;;36.48;38.91;99204.38;4989230;28;20320;-63
2023/07/14 10:54:43;;;;;;;2.33;2.05;;;;;;;36.70;37.46;99201.28;4989164;28;20224;-63
2023/07/14 10:57:24;;;;;;;2.55;2.30;;;;;;;36.70;38.15;99196.72;4992228;28;20217;-63
2023/07/14 10:59:56;;;;;;;4.50;2.60;;;;;;;36.77;39.86;99195.59;5008673;28;20219;-63
2023/07/14 11:02:28;;;;;;;5.75;2.58;;;;;;;36.76;36.84;99199.34;4992229;28;20764;-63
2023/07/14 11:05:01;;;;;;;4.47;2.60;;;;;;;36.78;38.27;99181.22;4988919;28;20678;-63
2023/07/14 11:07:31;;;;;;;2.75;2.33;;;;;;;36.92;36.28;99192.81;5001570;28;20287;-63
2023/07/14 11:09:58;;;;;;;2.72;2.08;;;;;;;36.93;36.22;99189.84;5008265;28;20205;-63
2023/07/14 11:12:35;;;;;;;3.28;2.40;;;;;;;36.72;40.45;99188.47;5008248;28;20201;-63
2023/07/14 11:15:18;;;;;;;3.28;2.22;;;;;;;36.66;36.84;99181.59;5008797;28;20211;-63
2023/07/14 11:17:56;;;;;;;2.58;2.03;;;;;;;36.80;39.44;99173.72;5008289;28;20236;-63
2023/07/14 11:20:31;;;;;;;3.80;2.30;;;;;;;36.76;37.21;99184.16;5000282;28;20259;-63
2023/07/14 11:23:13;;;;;;;2.80;2.20;;;;;;;36.88;38.22;99175.78;5008127;28;20291;-63
2023/07/14 11:25:48;;;;;;;4.97;2.00;;;;;;;36.97;37.51;99186.63;5008487;28;20200;-63
2023/07/14 11:28:46;;;;;;;3.15;2.40;;;;;;;36.71;36.73;99179.69;5008184;28;20603;-63
2023/07/14 11:31:21;;;;;;;3.55;2.22;;;;;;;36.96;39.10;99183.16;4988513;28;20690;-63
2023/07/14 11:33:58;;;;;;;2.88;2.35;;;;;;;36.81;37.80;99175.34;5006676;28;20208;-63
2023/07/14 11:36:31;;;;;;;2.88;2.10;;;;;;;37.06;38.32;99168.97;5005552;28;20239;-63
2023/07/14 11:39:08;;;;;;;3.80;2.63;;;;;;;36.72;38.30;99169.81;5006053;28;20228;-63
2023/07/14 11:41:36;;;;;;;4.38;2.20;;;;;;;36.87;37.58;99179.53;4996407;28;20200;-63
2023/07/14 11:44:10;;;;;;;2.50;2.30;;;;;;;36.84;38.78;99170.22;4998401;28;20201;-63
2023/07/14 11:46:38;;;;;;;6.78;2.20;;;;;;;36.89;37.70;99162.19;4998495;28;20592;-63